CheckWX is a tool to help pilots better visualize weather data.  It is not intended as a substitute for an official pre-flight weather briefing.

18:10:01 UTC

0J4 METAR
Florala Municipal Airport
Florala, Alabama, USA
Current

1 hour ago

K0J4 241658Z AUTO 08004KT 10SM SCT040 32/21 A3019 RMK AO2 SLP220 T03220206 $
Observed
May-24 @ 16:58 UTC
Wind
  • 080° at 4 KTS
Visibility
10 SM
Flight Rules
VFR
Cloud Levels
  • Scattered at 4,000' AGL
Temperature
32°C / 90°F
Dewpoint
21°C / 70°F
Heat Index
36°C / 96°F
Humidity
52%
Altimeter
30.19" Hg
Pressure
1022.32 hPa
Previous

2 hours ago

K0J4 241558Z AUTO 08005KT 10SM FEW031 31/21 A3021 RMK AO2 SLP224 T03110211 $
Observed
May-24 @ 15:58 UTC
Wind
  • 080° at 5 KTS
Visibility
10 SM
Flight Rules
VFR
Cloud Levels
  • Few at 3,100' AGL
Temperature
31°C / 88°F
Dewpoint
21°C / 70°F
Heat Index
34°C / 93°F
Humidity
55%
Altimeter
30.21" Hg
Pressure
1023.02 hPa
Previous

3 hours ago

K0J4 241458Z AUTO 04006KT 10SM FEW024 29/21 A3021 RMK AO2 SLP225 T02940206 51007 $
Observed
May-24 @ 14:58 UTC
Wind
  • 040° at 6 KTS
Visibility
10 SM
Flight Rules
VFR
Cloud Levels
  • Few at 2,400' AGL
Temperature
29°C / 84°F
Dewpoint
21°C / 70°F
Heat Index
31°C / 88°F
Humidity
62%
Altimeter
30.21" Hg
Pressure
1023.02 hPa